createdAt,value
2019-03-17T00:03:23.473Z,92.90
2019-03-17T00:05:53.842Z,92.70
2019-03-17T00:08:23.144Z,92.80
2019-03-17T00:10:53.561Z,92.80
2019-03-17T00:13:30.190Z,92.90
2019-03-17T00:15:59.508Z,92.50
2019-03-17T00:18:28.826Z,92.80
2019-03-17T00:20:58.125Z,92.80
2019-03-17T00:23:27.508Z,92.80
2019-03-17T00:25:56.835Z,92.70
2019-03-17T00:28:26.156Z,92.70
2019-03-17T00:30:55.492Z,92.90
2019-03-17T00:33:24.776Z,92.90
2019-03-17T00:35:54.096Z,93.00
2019-03-17T00:38:23.397Z,92.80
2019-03-17T00:40:52.722Z,93.10
2019-03-17T00:43:22.034Z,93.20
2019-03-17T00:45:51.468Z,92.90
2019-03-17T00:48:20.786Z,93.10
2019-03-17T00:50:50.210Z,92.90
2019-03-17T00:53:19.556Z,92.70
2019-03-17T00:55:48.874Z,92.80
2019-03-17T00:58:18.243Z,92.90
2019-03-17T01:00:47.557Z,92.80
2019-03-17T01:03:16.857Z,93.30
2019-03-17T01:05:46.175Z,93.10
2019-03-17T01:08:15.620Z,93.20
2019-03-17T01:10:45.008Z,93.00
2019-03-17T01:13:14.334Z,93.40
2019-03-17T01:15:43.746Z,93.20
2019-03-17T01:18:13.033Z,93.00
2019-03-17T01:20:42.359Z,92.90
2019-03-17T01:23:11.647Z,93.10
2019-03-17T01:25:40.968Z,92.80
2019-03-17T01:28:10.430Z,93.40
2019-03-17T01:30:39.748Z,93.20
2019-03-17T01:33:09.045Z,93.30
2019-03-17T01:35:38.376Z,93.30
2019-03-17T01:38:07.676Z,93.60
2019-03-17T01:40:36.996Z,93.20
2019-03-17T01:43:06.294Z,93.00
2019-03-17T01:45:35.642Z,93.00
2019-03-17T01:48:04.937Z,93.10
2019-03-17T01:50:34.263Z,93.40
2019-03-17T01:53:03.669Z,93.20
2019-03-17T01:55:32.948Z,93.30
2019-03-17T01:58:02.273Z,93.50
2019-03-17T02:00:31.638Z,93.70
2019-03-17T02:03:00.970Z,93.50
2019-03-17T02:05:30.258Z,93.20
2019-03-17T02:07:59.584Z,93.10
2019-03-17T02:10:28.881Z,93.20
2019-03-17T02:12:58.200Z,93.20
2019-03-17T02:15:27.500Z,93.30
2019-03-17T02:17:56.822Z,93.20
2019-03-17T02:20:27.209Z,93.40
2019-03-17T02:22:56.524Z,93.40
2019-03-17T02:25:25.912Z,93.00
2019-03-17T02:27:55.206Z,93.10
2019-03-17T02:30:24.528Z,93.10
2019-03-17T02:32:54.892Z,93.20
2019-03-17T02:35:37.844Z,93.10
2019-03-17T02:37:55.220Z,93.10
2019-03-17T02:40:24.544Z,93.30
2019-03-17T02:42:53.850Z,93.30
2019-03-17T02:45:23.183Z,93.10
2019-03-17T02:47:52.550Z,93.10
2019-03-17T02:50:21.989Z,93.00
2019-03-17T02:52:51.283Z,93.10
2019-03-17T02:55:20.607Z,93.00
2019-03-17T02:57:49.932Z,92.90
2019-03-17T03:00:19.295Z,92.70
2019-03-17T03:02:48.621Z,92.60
2019-03-17T03:05:17.918Z,92.70
2019-03-17T03:07:47.292Z,92.80
2019-03-17T03:10:16.601Z,92.80
2019-03-17T03:12:45.910Z,93.20
2019-03-17T03:15:15.204Z,93.50
2019-03-17T03:17:44.593Z,93.60
2019-03-17T03:20:13.892Z,93.50
2019-03-17T03:22:43.286Z,93.90
2019-03-17T03:25:12.594Z,93.90
2019-03-17T03:27:41.912Z,93.60
2019-03-17T03:30:13.184Z,93.70
2019-03-17T03:32:42.744Z,93.40
2019-03-17T03:35:12.218Z,93.30
2019-03-17T03:37:41.554Z,93.50
2019-03-17T03:40:12.200Z,94.00
2019-03-17T03:42:41.499Z,93.60
2019-03-17T03:45:12.255Z,93.80
2019-03-17T03:47:41.618Z,94.10
2019-03-17T03:50:12.282Z,94.30
2019-03-17T03:52:41.679Z,94.10
2019-03-17T03:55:11.070Z,94.00
2019-03-17T03:57:40.532Z,94.00
2019-03-17T04:00:16.133Z,94.10
2019-03-17T04:02:45.501Z,94.20
2019-03-17T04:05:14.817Z,94.00
2019-03-17T04:08:22.523Z,94.00
2019-03-17T04:11:30.804Z,93.30
2019-03-17T04:14:00.119Z,93.40
2019-03-17T04:16:29.445Z,93.80
2019-03-17T04:18:58.750Z,94.20
2019-03-17T04:21:28.149Z,94.00
2019-03-17T04:23:57.514Z,94.30
2019-03-17T04:26:27.911Z,94.20
2019-03-17T04:28:57.248Z,94.40
2019-03-17T04:31:26.557Z,94.00
2019-03-17T04:33:55.876Z,94.10
2019-03-17T04:36:39.138Z,94.10
2019-03-17T04:38:56.200Z,94.00
2019-03-17T04:41:25.528Z,94.60
2019-03-17T04:43:54.821Z,94.20
2019-03-17T04:46:24.144Z,94.00
2019-03-17T04:48:53.537Z,93.80
2019-03-17T04:51:22.943Z,93.80
2019-03-17T04:54:04.481Z,93.80
2019-03-17T04:56:33.797Z,93.20
2019-03-17T04:59:03.111Z,93.60
2019-03-17T05:01:32.448Z,93.60
2019-03-17T05:04:01.790Z,93.80
2019-03-17T05:06:31.087Z,93.90
2019-03-17T05:09:00.413Z,93.90
2019-03-17T05:11:29.737Z,93.90
2019-03-17T05:13:59.033Z,94.00
2019-03-17T05:16:28.379Z,94.10
2019-03-17T05:18:57.671Z,93.90
2019-03-17T05:21:27.025Z,93.90
2019-03-17T05:23:56.349Z,93.60
2019-03-17T05:26:25.644Z,93.40
2019-03-17T05:28:54.976Z,93.60
2019-03-17T05:31:24.331Z,93.60
2019-03-17T05:33:53.675Z,93.30
2019-03-17T05:36:23.228Z,93.20
2019-03-17T05:38:52.525Z,93.20
2019-03-17T05:41:21.842Z,93.10
2019-03-17T05:43:51.130Z,93.40
2019-03-17T05:46:20.454Z,93.10
2019-03-17T05:48:49.740Z,93.20
2019-03-17T05:51:19.063Z,93.40
2019-03-17T05:53:48.360Z,93.10
2019-03-17T05:56:17.751Z,93.20
2019-03-17T05:58:47.079Z,93.30
2019-03-17T06:01:16.509Z,93.20
2019-03-17T06:03:45.806Z,93.20
2019-03-17T06:06:15.130Z,93.00
2019-03-17T06:08:44.455Z,92.90
2019-03-17T06:11:13.778Z,92.90
2019-03-17T06:13:43.079Z,92.80
2019-03-17T06:16:12.393Z,92.60
2019-03-17T06:18:41.756Z,92.60
2019-03-17T06:21:11.077Z,92.60
2019-03-17T06:24:00.686Z,92.50
2019-03-17T06:26:30.005Z,92.40
2019-03-17T06:28:59.312Z,92.00
2019-03-17T06:31:28.659Z,91.90
2019-03-17T06:33:57.964Z,91.70
2019-03-17T06:36:27.304Z,91.30
2019-03-17T06:38:56.634Z,91.00
2019-03-17T06:41:26.110Z,91.00
2019-03-17T06:44:15.755Z,91.20
2019-03-17T06:46:45.056Z,91.00
2019-03-17T06:49:14.390Z,90.90
2019-03-17T06:51:43.680Z,90.90
2019-03-17T06:54:13.006Z,90.60
2019-03-17T06:56:42.296Z,90.30
2019-03-17T06:59:11.608Z,90.00
2019-03-17T07:01:40.905Z,90.00
2019-03-17T07:04:10.222Z,90.20
2019-03-17T07:06:39.536Z,90.00
2019-03-17T07:09:08.843Z,89.30
2019-03-17T07:11:38.136Z,88.70
2019-03-17T07:14:07.488Z,88.00
2019-03-17T07:16:36.787Z,86.20
2019-03-17T07:19:06.161Z,85.70
2019-03-17T07:21:35.470Z,85.70
2019-03-17T07:24:05.125Z,85.80
2019-03-17T07:26:34.425Z,86.00
2019-03-17T07:29:03.743Z,85.40
2019-03-17T07:31:33.070Z,84.90
2019-03-17T07:34:02.369Z,83.00
2019-03-17T07:36:31.709Z,79.50
2019-03-17T07:39:11.071Z,75.60
2019-03-17T07:41:32.089Z,73.70
2019-03-17T07:44:01.420Z,70.80
2019-03-17T07:46:30.727Z,70.50
2019-03-17T07:49:00.026Z,70.40
2019-03-17T07:51:29.341Z,67.00
2019-03-17T07:53:58.639Z,65.10
2019-03-17T07:56:27.938Z,65.60
2019-03-17T07:58:57.263Z,65.30
2019-03-17T08:01:26.596Z,64.90
2019-03-17T08:03:55.882Z,64.80
2019-03-17T08:06:25.191Z,62.90
2019-03-17T08:08:54.486Z,62.30
2019-03-17T08:11:23.795Z,59.60
2019-03-17T08:13:53.211Z,58.90
2019-03-17T08:16:22.512Z,58.40
2019-03-17T08:18:51.835Z,57.80
2019-03-17T08:21:43.174Z,56.40
2019-03-17T08:24:11.500Z,56.10
2019-03-17T08:26:40.827Z,55.60
2019-03-17T08:29:10.160Z,52.40
2019-03-17T08:31:39.456Z,54.00
2019-03-17T08:34:08.845Z,52.00
2019-03-17T08:36:38.155Z,49.60
2019-03-17T08:39:08.125Z,50.40
2019-03-17T08:41:37.753Z,48.90
2019-03-17T08:44:07.327Z,47.80
2019-03-17T08:46:36.662Z,47.60
2019-03-17T08:49:05.984Z,44.90
2019-03-17T08:51:35.501Z,44.80
2019-03-17T08:54:04.870Z,45.20
2019-03-17T08:56:34.194Z,40.90
2019-03-17T08:59:03.595Z,38.40
2019-03-17T09:01:32.957Z,38.70
2019-03-17T09:04:02.296Z,36.60
2019-03-17T09:06:31.597Z,35.80
2019-03-17T09:09:00.921Z,35.30
2019-03-17T09:11:32.092Z,35.40
2019-03-17T09:14:01.416Z,35.00
2019-03-17T09:16:30.720Z,33.30
2019-03-17T09:19:00.053Z,33.00
2019-03-17T09:21:29.358Z,33.30
2019-03-17T09:23:58.693Z,32.80
2019-03-17T09:26:28.002Z,32.90
2019-03-17T09:28:57.327Z,31.00
2019-03-17T09:31:32.236Z,30.10
2019-03-17T09:34:02.438Z,31.40
2019-03-17T09:36:32.515Z,30.60
2019-03-17T09:39:02.100Z,31.10
2019-03-17T09:41:31.684Z,31.90
2019-03-17T09:44:01.023Z,30.30
2019-03-17T09:46:36.224Z,30.60
2019-03-17T09:49:05.535Z,31.30
2019-03-17T09:51:34.858Z,31.10
2019-03-17T09:54:04.232Z,29.50
2019-03-17T09:56:46.677Z,28.70
2019-03-17T09:59:15.992Z,27.80
2019-03-17T10:01:45.292Z,27.30
2019-03-17T10:04:14.628Z,27.70
2019-03-17T10:06:43.930Z,26.70
2019-03-17T10:09:14.500Z,26.00
2019-03-17T10:11:43.837Z,26.80
2019-03-17T10:14:13.130Z,26.30
2019-03-17T10:16:42.466Z,26.80
2019-03-17T10:19:11.811Z,26.70
2019-03-17T10:21:41.170Z,26.40
2019-03-17T10:24:10.477Z,26.30
2019-03-17T10:26:39.814Z,26.80
2019-03-17T10:29:09.146Z,25.90
2019-03-17T10:31:38.440Z,27.10
2019-03-17T10:34:07.779Z,24.60
2019-03-17T10:36:37.072Z,24.70
2019-03-17T10:39:12.411Z,24.20
2019-03-17T10:41:37.841Z,24.60
2019-03-17T10:44:08.236Z,23.60
2019-03-17T10:46:37.542Z,23.80
2019-03-17T10:49:06.876Z,24.90
2019-03-17T10:51:36.171Z,23.70
2019-03-17T10:54:05.554Z,25.50
2019-03-17T10:56:34.875Z,24.90
2019-03-17T10:59:04.217Z,25.00
2019-03-17T11:01:33.509Z,25.00
2019-03-17T11:04:02.860Z,25.10
2019-03-17T11:06:32.170Z,25.10
2019-03-17T11:09:01.498Z,24.70
2019-03-17T11:11:32.276Z,24.60
2019-03-17T11:14:01.613Z,26.10
2019-03-17T11:16:31.025Z,25.20
2019-03-17T11:19:00.323Z,25.90
2019-03-17T11:21:29.643Z,24.30
2019-03-17T11:23:58.953Z,23.90
2019-03-17T11:26:28.355Z,24.10
2019-03-17T11:28:57.648Z,25.00
2019-03-17T11:31:27.151Z,23.40
2019-03-17T11:33:56.447Z,23.80
2019-03-17T11:36:25.820Z,21.90
2019-03-17T11:38:55.156Z,23.10
2019-03-17T11:41:24.473Z,24.10
2019-03-17T11:43:53.880Z,23.80
2019-03-17T11:46:23.198Z,23.80
2019-03-17T11:48:52.559Z,24.30
2019-03-17T11:51:21.858Z,23.10
2019-03-17T11:53:51.187Z,23.30
2019-03-17T11:56:20.496Z,23.30
2019-03-17T11:58:49.828Z,23.00
2019-03-17T12:01:19.167Z,22.40
2019-03-17T12:03:48.537Z,23.00
2019-03-17T12:06:17.869Z,23.80
2019-03-17T12:08:47.168Z,23.20
2019-03-17T12:11:17.569Z,24.20
2019-03-17T12:13:46.877Z,24.30
2019-03-17T12:16:16.205Z,23.50
2019-03-17T12:18:46.578Z,22.90
2019-03-17T12:21:15.933Z,23.30
2019-03-17T12:23:45.304Z,24.00
2019-03-17T12:26:14.634Z,24.90
2019-03-17T12:28:44.011Z,25.10
2019-03-17T12:31:15.794Z,24.60
2019-03-17T12:33:45.094Z,25.10
2019-03-17T12:36:19.021Z,25.60
2019-03-17T12:38:48.562Z,24.00
2019-03-17T12:41:17.887Z,24.60
2019-03-17T12:43:47.225Z,25.80
2019-03-17T12:46:16.565Z,26.10
2019-03-17T12:48:46.940Z,26.60
2019-03-17T12:51:16.272Z,28.80
2019-03-17T12:53:45.735Z,29.80
2019-03-17T12:56:15.064Z,31.50
2019-03-17T12:59:03.774Z,32.70
2019-03-17T13:01:33.123Z,34.70
2019-03-17T13:04:02.490Z,36.30
2019-03-17T13:06:31.830Z,36.60
2019-03-17T13:09:01.328Z,36.70
2019-03-17T13:11:32.404Z,37.80
2019-03-17T13:14:01.729Z,38.70
2019-03-17T13:16:31.036Z,39.60
2019-03-17T13:19:00.368Z,40.30
2019-03-17T13:21:29.679Z,41.20
2019-03-17T13:23:59.027Z,41.20
2019-03-17T13:26:29.256Z,41.60
2019-03-17T13:28:58.588Z,42.10
2019-03-17T13:31:27.909Z,41.80
2019-03-17T13:33:57.288Z,43.00
2019-03-17T13:36:26.647Z,44.00
2019-03-17T13:38:55.969Z,44.00
2019-03-17T13:41:25.298Z,44.50
2019-03-17T13:43:54.597Z,45.00
2019-03-17T13:46:23.923Z,45.60
2019-03-17T13:48:53.219Z,46.40
2019-03-17T13:51:22.565Z,46.50
2019-03-17T13:53:51.861Z,47.40
2019-03-17T13:56:21.297Z,47.80
2019-03-17T13:58:50.600Z,49.10
2019-03-17T14:01:19.943Z,50.20
2019-03-17T14:03:55.085Z,51.10
2019-03-17T14:06:24.486Z,57.50
2019-03-17T14:08:53.829Z,69.30
2019-03-17T14:11:23.150Z,70.70
2019-03-17T14:13:52.484Z,75.00
2019-03-17T14:16:21.783Z,78.70
2019-03-17T14:18:51.114Z,81.50
2019-03-17T14:21:20.442Z,82.80
2019-03-17T14:23:49.756Z,83.60
2019-03-17T14:26:19.049Z,84.90
2019-03-17T14:28:48.368Z,84.40
2019-03-17T14:31:17.668Z,83.70
2019-03-17T14:33:47.103Z,84.50
2019-03-17T14:36:16.491Z,81.80
2019-03-17T14:38:45.878Z,83.10
2019-03-17T14:41:15.178Z,86.20
2019-03-17T14:43:44.477Z,86.20
2019-03-17T14:46:13.820Z,85.40
2019-03-17T14:48:43.115Z,86.40
2019-03-17T14:51:12.426Z,85.60
2019-03-17T14:53:41.724Z,83.50
2019-03-17T14:56:11.045Z,84.70
2019-03-17T14:58:40.358Z,84.00
2019-03-17T15:01:09.682Z,85.70
2019-03-17T15:03:38.971Z,85.90
2019-03-17T15:06:08.288Z,86.40
2019-03-17T15:08:37.620Z,86.90
2019-03-17T15:11:06.914Z,85.60
2019-03-17T15:13:36.237Z,86.00
2019-03-17T15:16:05.531Z,87.50
2019-03-17T15:18:34.856Z,85.30
2019-03-17T15:21:04.282Z,85.80
2019-03-17T15:23:34.653Z,88.60
2019-03-17T15:26:16.547Z,88.60
2019-03-17T15:28:45.873Z,89.90
2019-03-17T15:31:15.193Z,90.40
2019-03-17T15:33:44.504Z,91.00
2019-03-17T15:36:13.812Z,92.00
2019-03-17T15:38:43.121Z,91.20
2019-03-17T15:41:18.649Z,91.00
2019-03-17T15:43:43.626Z,90.20
2019-03-17T15:46:12.941Z,90.80
2019-03-17T15:48:42.261Z,90.30
2019-03-17T15:51:20.370Z,90.80
2019-03-17T15:53:42.698Z,90.00
2019-03-17T15:56:12.064Z,90.20
2019-03-17T15:58:53.705Z,88.40
2019-03-17T16:01:22.999Z,88.90
2019-03-17T16:03:52.337Z,89.40
2019-03-17T16:06:21.616Z,91.10
2019-03-17T16:08:50.931Z,90.10
2019-03-17T16:11:30.355Z,91.30
2019-03-17T16:13:51.245Z,90.00
2019-03-17T16:16:20.600Z,90.20
2019-03-17T16:18:49.924Z,91.60
2019-03-17T16:21:19.217Z,89.90
2019-03-17T16:23:48.548Z,88.20
2019-03-17T16:26:17.861Z,88.20
2019-03-17T16:28:48.813Z,89.70
2019-03-17T16:31:33.610Z,90.50
2019-03-17T16:34:19.976Z,87.80
2019-03-17T16:36:52.514Z,87.30
2019-03-17T16:39:22.140Z,89.80
2019-03-17T16:41:51.609Z,89.20
2019-03-17T16:44:20.934Z,87.80
2019-03-17T16:46:50.228Z,87.80
2019-03-17T16:49:19.566Z,86.70
2019-03-17T16:52:08.224Z,88.10
2019-03-17T16:54:37.533Z,86.30
2019-03-17T16:57:06.864Z,87.30
2019-03-17T16:59:36.189Z,87.70
2019-03-17T17:02:05.476Z,88.50
2019-03-17T17:04:34.787Z,87.20
2019-03-17T17:07:04.268Z,88.90
2019-03-17T17:09:33.560Z,89.20
2019-03-17T17:12:02.900Z,89.70
2019-03-17T17:14:32.213Z,89.70
2019-03-17T17:17:02.690Z,88.10
2019-03-17T17:19:31.986Z,89.80
2019-03-17T17:22:01.323Z,89.80
2019-03-17T17:24:30.618Z,89.40
2019-03-17T17:26:59.934Z,90.00
2019-03-17T17:29:29.254Z,89.20
2019-03-17T17:31:58.630Z,87.90
2019-03-17T17:34:27.960Z,88.60
2019-03-17T17:36:57.311Z,90.10
2019-03-17T17:39:26.628Z,89.30
2019-03-17T17:42:08.015Z,89.10
2019-03-17T17:44:26.971Z,89.40
2019-03-17T17:46:58.273Z,90.10
2019-03-17T17:49:27.295Z,90.80
2019-03-17T17:51:56.660Z,90.90
2019-03-17T17:54:25.990Z,90.60
2019-03-17T17:56:55.335Z,90.60
2019-03-17T17:59:24.668Z,90.90
2019-03-17T18:01:53.982Z,91.60
2019-03-17T18:04:23.374Z,91.50
2019-03-17T18:06:52.781Z,91.50
2019-03-17T18:09:22.156Z,90.40
2019-03-17T18:11:56.341Z,90.10
2019-03-17T18:14:25.719Z,90.00
2019-03-17T18:16:55.251Z,90.10
2019-03-17T18:19:25.592Z,89.00
2019-03-17T18:21:54.901Z,88.60
2019-03-17T18:24:24.277Z,88.80
2019-03-17T18:26:53.805Z,85.30
2019-03-17T18:29:23.359Z,85.70
2019-03-17T18:31:52.882Z,85.80
2019-03-17T18:34:22.209Z,86.40
2019-03-17T18:36:51.513Z,86.10
2019-03-17T18:39:20.920Z,85.00
2019-03-17T18:41:50.223Z,86.30
2019-03-17T18:44:19.542Z,84.40
2019-03-17T18:46:48.900Z,84.50
2019-03-17T18:49:18.223Z,85.70
2019-03-17T18:51:47.620Z,85.80
2019-03-17T18:54:16.991Z,85.40
2019-03-17T18:56:46.388Z,87.70
2019-03-17T18:59:17.785Z,87.60
2019-03-17T19:01:46.825Z,86.70
2019-03-17T19:04:16.153Z,87.70
2019-03-17T19:06:45.448Z,88.90
2019-03-17T19:09:14.781Z,88.10
2019-03-17T19:11:44.133Z,88.70
2019-03-17T19:14:13.474Z,85.70
2019-03-17T19:16:42.793Z,87.30
2019-03-17T19:19:12.088Z,88.00
2019-03-17T19:21:41.415Z,87.30
2019-03-17T19:24:10.712Z,86.70
2019-03-17T19:26:41.096Z,87.40
2019-03-17T19:29:10.391Z,87.00
2019-03-17T19:31:39.712Z,85.70
2019-03-17T19:34:09.014Z,85.70
2019-03-17T19:36:38.331Z,86.40
2019-03-17T19:39:07.732Z,86.50
2019-03-17T19:41:37.027Z,86.70
2019-03-17T19:44:06.688Z,86.70
2019-03-17T19:46:35.983Z,86.00
2019-03-17T19:49:05.534Z,87.40
2019-03-17T19:51:34.807Z,84.90
2019-03-17T19:54:04.208Z,84.90
2019-03-17T19:56:34.525Z,84.50
2019-03-17T19:59:04.139Z,85.10
2019-03-17T20:01:34.174Z,86.40
2019-03-17T20:04:03.770Z,85.90
2019-03-17T20:06:33.133Z,87.50
2019-03-17T20:09:05.785Z,87.60
2019-03-17T20:11:35.597Z,86.60
2019-03-17T20:14:04.974Z,85.50
2019-03-17T20:16:35.094Z,84.20
2019-03-17T20:19:05.029Z,83.10
2019-03-17T20:21:35.428Z,83.50
2019-03-17T20:24:06.141Z,83.90
2019-03-17T20:26:47.683Z,85.60
2019-03-17T20:29:17.010Z,84.70
2019-03-17T20:31:58.897Z,85.50
2019-03-17T20:34:28.283Z,85.10
2019-03-17T20:36:57.597Z,86.00
2019-03-17T20:39:26.885Z,86.20
2019-03-17T20:41:56.279Z,84.90
2019-03-17T20:44:25.574Z,85.60
2019-03-17T20:46:54.987Z,86.30
2019-03-17T20:49:24.492Z,86.30
2019-03-17T20:51:53.860Z,86.30
2019-03-17T20:54:23.189Z,87.10
2019-03-17T20:56:52.483Z,86.40
2019-03-17T20:59:21.813Z,86.80
2019-03-17T21:01:51.101Z,87.20
2019-03-17T21:04:20.425Z,87.80
2019-03-17T21:06:49.721Z,87.00
2019-03-17T21:09:19.041Z,87.90
2019-03-17T21:11:48.332Z,87.30
2019-03-17T21:14:17.664Z,86.90
2019-03-17T21:17:06.329Z,86.60
2019-03-17T21:19:35.633Z,87.60
2019-03-17T21:22:05.137Z,88.10
2019-03-17T21:24:34.438Z,87.80
2019-03-17T21:27:03.736Z,87.80
2019-03-17T21:29:33.118Z,87.90
2019-03-17T21:32:02.413Z,88.60
2019-03-17T21:34:31.745Z,88.00
2019-03-17T21:37:01.032Z,88.60
2019-03-17T21:39:30.585Z,88.30
2019-03-17T21:41:59.877Z,88.00
2019-03-17T21:44:29.213Z,88.80
2019-03-17T21:46:58.513Z,88.80
2019-03-17T21:49:27.832Z,89.20
2019-03-17T21:52:09.545Z,88.40
2019-03-17T21:54:38.867Z,87.90
2019-03-17T21:57:08.208Z,87.80
2019-03-17T21:59:37.530Z,88.00
2019-03-17T22:02:12.890Z,88.80
2019-03-17T22:04:37.945Z,88.60
2019-03-17T22:07:07.422Z,88.90
2019-03-17T22:09:36.910Z,88.40
2019-03-17T22:12:06.300Z,88.40
2019-03-17T22:14:47.804Z,89.20
2019-03-17T22:17:28.925Z,89.60
2019-03-17T22:19:58.314Z,89.30
2019-03-17T22:22:27.643Z,89.00
2019-03-17T22:24:56.948Z,90.40
2019-03-17T22:27:26.265Z,90.40
2019-03-17T22:29:55.576Z,90.70
2019-03-17T22:32:24.875Z,90.80
2019-03-17T22:34:54.195Z,90.80
2019-03-17T22:37:23.498Z,91.10
2019-03-17T22:39:52.825Z,90.80
2019-03-17T22:42:22.143Z,90.60
2019-03-17T22:44:51.437Z,90.80
2019-03-17T22:47:20.766Z,90.90
2019-03-17T22:49:50.072Z,90.20
2019-03-17T22:52:19.428Z,89.10
2019-03-17T22:55:01.058Z,89.70
2019-03-17T22:57:30.389Z,88.30
2019-03-17T22:59:59.715Z,89.60
2019-03-17T23:02:29.004Z,87.80
2019-03-17T23:04:58.337Z,88.60
2019-03-17T23:07:27.721Z,90.10
2019-03-17T23:09:57.047Z,89.20
2019-03-17T23:12:38.275Z,90.20
2019-03-17T23:15:12.080Z,90.00
2019-03-17T23:17:41.379Z,90.60
2019-03-17T23:20:15.814Z,91.00
2019-03-17T23:22:45.128Z,90.80
2019-03-17T23:25:14.446Z,90.90
2019-03-17T23:27:43.737Z,90.40
2019-03-17T23:30:18.959Z,90.50
2019-03-17T23:32:49.368Z,91.10
2019-03-17T23:35:18.395Z,91.40
2019-03-17T23:37:47.686Z,91.50
2019-03-17T23:40:18.035Z,91.50
2019-03-17T23:42:47.374Z,91.40
2019-03-17T23:45:16.821Z,91.70
2019-03-17T23:47:46.232Z,91.50
2019-03-17T23:50:15.879Z,91.20
2019-03-17T23:52:45.204Z,91.30
2019-03-17T23:55:26.848Z,91.60
2019-03-17T23:57:56.178Z,91.00
